createdAt,value
2022-11-08T00:00:25.624Z,2.93
2022-11-08T00:03:12.280Z,2.53
2022-11-08T00:06:16.346Z,3.00
2022-11-08T00:09:21.876Z,3.10
2022-11-08T00:12:26.997Z,3.33
2022-11-08T00:15:13.510Z,2.90
2022-11-08T00:17:59.836Z,2.97
2022-11-08T00:20:46.252Z,2.53
2022-11-08T00:23:32.654Z,2.40
2022-11-08T00:26:20.099Z,2.40
2022-11-08T00:29:06.394Z,3.03
2022-11-08T00:31:53.126Z,2.60
2022-11-08T00:34:39.640Z,2.83
2022-11-08T00:37:26.904Z,2.80
2022-11-08T00:40:14.061Z,2.50
2022-11-08T00:43:01.944Z,2.53
2022-11-08T00:45:48.176Z,2.60
2022-11-08T00:48:34.425Z,2.83
2022-11-08T00:51:20.972Z,3.00
2022-11-08T00:54:08.824Z,2.63
2022-11-08T00:56:55.456Z,2.53
2022-11-08T00:59:43.209Z,2.60
2022-11-08T01:02:29.550Z,2.77
2022-11-08T01:05:16.262Z,3.17
2022-11-08T01:08:02.540Z,3.00
2022-11-08T01:10:51.219Z,2.90
2022-11-08T01:13:37.997Z,2.70
2022-11-08T01:16:28.049Z,2.97
2022-11-08T01:19:14.494Z,3.20
2022-11-08T01:22:00.991Z,2.77
2022-11-08T01:24:47.218Z,2.90
2022-11-08T01:27:33.579Z,2.63
2022-11-08T01:30:20.140Z,3.00
2022-11-08T01:33:08.847Z,3.20
2022-11-08T01:35:55.398Z,3.00
2022-11-08T01:38:41.946Z,2.83
2022-11-08T01:41:28.895Z,2.67
2022-11-08T01:44:17.895Z,2.80
2022-11-08T01:47:04.406Z,3.20
2022-11-08T01:49:55.679Z,2.90
2022-11-08T01:52:45.811Z,2.70
2022-11-08T01:55:37.237Z,2.80
2022-11-08T01:58:27.055Z,2.90
2022-11-08T02:01:14.217Z,2.80
2022-11-08T02:04:01.622Z,2.80
2022-11-08T02:06:50.531Z,2.80
2022-11-08T02:09:38.973Z,3.30
2022-11-08T02:12:27.732Z,3.00
2022-11-08T02:15:15.521Z,2.97
2022-11-08T02:18:02.031Z,3.00
2022-11-08T02:20:57.595Z,2.80
2022-11-08T02:23:47.736Z,2.90
2022-11-08T02:26:35.630Z,2.87
2022-11-08T02:29:28.543Z,2.40
2022-11-08T02:32:15.982Z,2.50
2022-11-08T02:35:02.712Z,2.60
2022-11-08T02:37:49.125Z,2.77
2022-11-08T02:40:47.964Z,2.40
2022-11-08T02:43:34.467Z,2.53
2022-11-08T02:46:21.001Z,3.03
2022-11-08T02:49:07.481Z,2.80
2022-11-08T02:51:54.723Z,2.80
2022-11-08T02:54:41.189Z,2.80
2022-11-08T02:57:29.074Z,2.90
2022-11-08T03:00:16.453Z,2.50
2022-11-08T03:03:02.706Z,2.80
2022-11-08T03:05:49.007Z,2.90
2022-11-08T03:08:35.303Z,2.80
2022-11-08T03:11:21.519Z,2.77
2022-11-08T03:14:09.489Z,2.70
2022-11-08T03:16:55.892Z,2.80
2022-11-08T03:19:42.397Z,3.07
2022-11-08T03:22:28.912Z,3.70
2022-11-08T03:25:15.483Z,3.07
2022-11-08T03:28:06.849Z,3.13
2022-11-08T03:30:54.486Z,2.70
2022-11-08T03:33:40.719Z,3.10
2022-11-08T03:36:27.336Z,2.93
2022-11-08T03:39:13.660Z,3.00
2022-11-08T03:42:02.943Z,3.37
2022-11-08T03:44:49.228Z,3.13
2022-11-08T03:47:40.107Z,2.83
2022-11-08T03:50:26.414Z,3.70
2022-11-08T03:53:12.916Z,2.90
2022-11-08T03:56:00.367Z,2.93
2022-11-08T03:58:47.049Z,3.00
2022-11-08T04:01:33.981Z,2.97
2022-11-08T04:04:22.055Z,3.13
2022-11-08T04:07:08.616Z,3.80
2022-11-08T04:09:55.096Z,4.20
2022-11-08T04:12:59.522Z,4.10
2022-11-08T04:15:47.434Z,4.60
2022-11-08T04:18:51.061Z,3.83
2022-11-08T04:21:39.039Z,3.73
2022-11-08T04:24:25.526Z,4.20
2022-11-08T04:27:12.089Z,4.90
2022-11-08T04:29:58.216Z,4.67
2022-11-08T04:32:44.750Z,4.70
2022-11-08T04:35:32.302Z,4.20
2022-11-08T04:38:20.690Z,3.73
2022-11-08T04:41:08.669Z,4.03
2022-11-08T04:43:56.939Z,3.97
2022-11-08T04:46:43.283Z,4.23
2022-11-08T04:49:29.911Z,3.50
2022-11-08T04:52:17.472Z,3.80
2022-11-08T04:55:05.766Z,3.57
2022-11-08T04:57:52.591Z,3.90
2022-11-08T05:00:38.971Z,4.10
2022-11-08T05:03:25.264Z,3.83
2022-11-08T05:06:19.110Z,4.77
2022-11-08T05:09:05.410Z,3.90
2022-11-08T05:11:53.118Z,4.57
2022-11-08T05:14:39.908Z,4.10
2022-11-08T05:17:26.176Z,4.33
2022-11-08T05:20:30.288Z,4.50
2022-11-08T05:23:25.348Z,3.97
2022-11-08T05:26:11.971Z,4.17
2022-11-08T05:28:59.525Z,4.07
2022-11-08T05:31:45.979Z,4.40
2022-11-08T05:34:32.366Z,4.90
2022-11-08T05:37:18.776Z,5.10
2022-11-08T05:40:06.020Z,4.47
2022-11-08T05:42:54.597Z,5.83
2022-11-08T05:45:42.405Z,5.50
2022-11-08T05:48:28.616Z,5.30
2022-11-08T05:51:15.730Z,4.83
2022-11-08T05:54:02.199Z,5.10
2022-11-08T05:56:48.652Z,5.33
2022-11-08T05:59:34.891Z,5.17
2022-11-08T06:02:23.091Z,5.57
2022-11-08T06:05:11.090Z,5.40
2022-11-08T06:07:57.554Z,6.40
2022-11-08T06:10:43.805Z,6.20
2022-11-08T06:13:30.226Z,5.80
2022-11-08T06:16:18.092Z,5.23
2022-11-08T06:19:06.165Z,5.70
2022-11-08T06:21:52.753Z,5.07
2022-11-08T06:24:39.007Z,5.00
2022-11-08T06:27:25.726Z,4.57
2022-11-08T06:30:13.060Z,4.40
2022-11-08T06:33:00.296Z,4.57
2022-11-08T06:35:47.795Z,4.50
2022-11-08T06:38:34.051Z,4.47
2022-11-08T06:41:21.032Z,4.60
2022-11-08T06:44:07.498Z,5.33
2022-11-08T06:46:56.112Z,4.20
2022-11-08T06:49:42.400Z,4.90
2022-11-08T06:52:30.077Z,5.43
2022-11-08T06:55:16.510Z,4.60
2022-11-08T06:58:03.504Z,5.23
2022-11-08T07:00:49.743Z,5.30
2022-11-08T07:03:36.336Z,4.70
2022-11-08T07:06:23.047Z,5.00
2022-11-08T07:09:10.738Z,4.73
2022-11-08T07:11:57.442Z,4.63
2022-11-08T07:14:44.019Z,5.07
2022-11-08T07:17:34.284Z,4.10
2022-11-08T07:20:23.729Z,4.80
2022-11-08T07:23:10.720Z,4.57
2022-11-08T07:26:01.589Z,4.43
2022-11-08T07:28:48.004Z,5.30
2022-11-08T07:31:34.574Z,5.47
2022-11-08T07:34:21.193Z,5.60
2022-11-08T07:37:07.850Z,5.00
2022-11-08T07:39:54.308Z,5.43
2022-11-08T07:43:10.127Z,5.93
2022-11-08T07:45:54.890Z,6.33
2022-11-08T07:48:41.464Z,5.00
2022-11-08T07:51:27.905Z,4.97
2022-11-08T07:54:14.177Z,5.37
2022-11-08T07:57:00.403Z,4.53
2022-11-08T07:59:48.112Z,4.53
2022-11-08T08:02:34.319Z,3.70
2022-11-08T08:05:20.595Z,3.80
2022-11-08T08:08:07.544Z,4.30
2022-11-08T08:10:57.036Z,4.47
2022-11-08T08:13:43.469Z,3.97
2022-11-08T08:16:31.423Z,3.67
2022-11-08T08:19:17.747Z,3.70
2022-11-08T08:22:04.307Z,3.50
2022-11-08T08:24:50.610Z,4.00
2022-11-08T08:27:37.162Z,4.20
2022-11-08T08:30:24.927Z,3.67
2022-11-08T08:33:27.817Z,3.92
2022-11-08T08:36:15.185Z,4.32
2022-11-08T08:39:01.537Z,4.85
2022-11-08T08:41:47.956Z,3.63
2022-11-08T08:44:34.253Z,4.60
2022-11-08T08:47:20.395Z,3.67
2022-11-08T08:50:08.998Z,3.38
2022-11-08T08:52:59.959Z,4.80
2022-11-08T08:55:47.953Z,3.63
2022-11-08T08:58:34.243Z,3.85
2022-11-08T09:04:26.958Z,3.22
2022-11-08T09:07:15.024Z,3.28
2022-11-08T09:10:01.370Z,3.33
2022-11-08T09:12:47.675Z,3.22
2022-11-08T09:15:34.187Z,4.38
2022-11-08T09:18:21.423Z,3.50
2022-11-08T09:21:08.079Z,3.15
2022-11-08T09:23:56.137Z,3.45
2022-11-08T09:26:42.245Z,3.28
2022-11-08T09:29:28.489Z,3.38
2022-11-08T09:32:15.075Z,3.10
2022-11-08T09:37:54.172Z,3.45
2022-11-08T09:40:48.798Z,3.38
2022-11-08T09:43:58.607Z,3.55
2022-11-08T09:46:50.159Z,3.28
2022-11-08T09:49:42.196Z,3.50
2022-11-08T09:52:31.706Z,3.67
2022-11-08T09:55:27.404Z,3.13
2022-11-08T09:58:27.133Z,3.35
2022-11-08T10:01:14.365Z,3.63
2022-11-08T10:04:06.564Z,3.40
2022-11-08T10:07:10.953Z,2.95
2022-11-08T10:10:19.634Z,3.58
2022-11-08T10:13:13.963Z,2.92
2022-11-08T10:16:11.471Z,3.00
2022-11-08T10:19:23.964Z,3.63
2022-11-08T10:22:18.750Z,3.55
2022-11-08T10:25:19.255Z,2.85
2022-11-08T10:28:08.043Z,3.03
2022-11-08T10:30:56.257Z,2.65
2022-11-08T10:33:49.115Z,2.72
2022-11-08T10:36:40.429Z,2.78
2022-11-08T10:39:29.328Z,2.10
2022-11-08T10:42:21.521Z,2.53
2022-11-08T10:45:10.515Z,2.50
2022-11-08T10:47:56.835Z,2.55
2022-11-08T10:50:46.825Z,2.03
2022-11-08T10:53:34.863Z,2.50
2022-11-08T10:56:23.041Z,2.60
2022-11-08T10:59:30.156Z,2.80
2022-11-08T11:02:24.639Z,2.38
2022-11-08T11:05:25.914Z,2.53
2022-11-08T11:08:19.031Z,2.38
2022-11-08T11:11:28.051Z,1.98
2022-11-08T11:14:21.713Z,1.98
2022-11-08T11:17:17.567Z,2.10
2022-11-08T11:20:03.988Z,3.35
2022-11-08T11:22:52.116Z,2.10
2022-11-08T11:25:51.314Z,2.30
2022-11-08T11:28:37.803Z,1.92
2022-11-08T11:31:24.225Z,2.28
2022-11-08T11:34:28.466Z,2.28
2022-11-08T11:37:28.912Z,1.80
2022-11-08T11:40:22.155Z,2.20
2022-11-08T11:43:17.374Z,2.20
2022-11-08T11:46:14.328Z,1.77
2022-11-08T11:49:03.361Z,2.05
2022-11-08T11:51:53.193Z,2.17
2022-11-08T11:54:39.327Z,2.63
2022-11-08T11:57:36.395Z,2.03
2022-11-08T12:00:24.599Z,2.00
2022-11-08T12:03:31.700Z,3.70
2022-11-08T12:06:31.103Z,2.30
2022-11-08T12:09:28.441Z,1.98
2022-11-08T12:12:27.469Z,2.05
2022-11-08T12:15:23.685Z,2.33
2022-11-08T12:18:43.585Z,2.25
2022-11-08T12:21:39.003Z,2.05
2022-11-08T12:24:38.939Z,4.40
2022-11-08T12:27:32.906Z,1.95
2022-11-08T12:30:22.540Z,2.05
2022-11-08T12:33:22.891Z,2.15
2022-11-08T12:36:21.719Z,2.38
2022-11-08T12:39:23.503Z,2.65
2022-11-08T12:42:41.937Z,2.38
2022-11-08T12:45:45.513Z,1.83
2022-11-08T12:48:48.583Z,1.85
2022-11-08T12:51:49.862Z,2.10
2022-11-08T12:54:39.724Z,1.90
2022-11-08T12:57:28.097Z,3.58
2022-11-08T13:00:18.559Z,2.05
2022-11-08T13:03:23.141Z,1.77
2022-11-08T13:06:18.013Z,2.33
2022-11-08T13:09:13.203Z,2.80
2022-11-08T13:12:06.984Z,2.05
2022-11-08T13:14:53.775Z,2.65
2022-11-08T13:17:40.100Z,1.90
2022-11-08T13:20:40.397Z,2.60
2022-11-08T13:23:31.440Z,2.70
2022-11-08T13:26:23.844Z,1.98
2022-11-08T13:29:15.640Z,2.25
2022-11-08T13:32:08.675Z,3.28
2022-11-08T13:35:03.407Z,2.60
2022-11-08T13:38:02.365Z,2.60
2022-11-08T13:41:15.801Z,2.00
2022-11-08T13:44:44.560Z,2.22
2022-11-08T13:47:55.426Z,3.13
2022-11-08T13:50:53.398Z,2.38
2022-11-08T13:53:51.464Z,2.33
2022-11-08T13:56:47.284Z,1.88
2022-11-08T13:59:56.574Z,3.55
2022-11-08T14:02:43.240Z,2.40
2022-11-08T14:05:31.423Z,2.17
2022-11-08T14:08:23.798Z,2.25
2022-11-08T14:11:45.327Z,1.90
2022-11-08T14:14:57.482Z,2.20
2022-11-08T14:17:48.015Z,2.00
2022-11-08T14:20:39.505Z,2.30
2022-11-08T14:23:29.577Z,1.80
2022-11-08T14:26:21.115Z,2.00
2022-11-08T14:29:09.811Z,1.73
2022-11-08T14:32:04.927Z,1.92
2022-11-08T14:34:52.924Z,2.10
2022-11-08T14:37:40.035Z,2.10
2022-11-08T14:40:29.816Z,2.40
2022-11-08T14:43:16.935Z,2.67
2022-11-08T14:46:12.312Z,2.75
2022-11-08T14:48:59.167Z,2.35
2022-11-08T14:51:47.967Z,2.30
2022-11-08T14:54:40.236Z,2.40
2022-11-08T14:57:35.490Z,2.53
2022-11-08T15:00:26.870Z,2.47
2022-11-08T15:03:17.721Z,2.40
2022-11-08T15:06:12.610Z,2.50
2022-11-08T15:09:02.550Z,2.10
2022-11-08T15:11:52.933Z,2.58
2022-11-08T15:14:46.320Z,2.55
2022-11-08T15:17:36.044Z,3.00
2022-11-08T15:20:23.276Z,2.75
2022-11-08T15:23:28.000Z,3.33
2022-11-08T15:26:25.660Z,2.70
2022-11-08T15:29:19.491Z,2.60
2022-11-08T15:32:06.509Z,2.60
2022-11-08T15:34:55.652Z,2.17
2022-11-08T15:37:42.511Z,2.40
2022-11-08T15:40:31.809Z,2.70
2022-11-08T15:43:37.660Z,2.25
2022-11-08T15:46:38.066Z,2.90
2022-11-08T15:49:26.191Z,2.40
2022-11-08T15:52:12.485Z,2.47
2022-11-08T15:54:58.656Z,2.53
2022-11-08T15:57:46.509Z,2.17
2022-11-08T16:00:36.793Z,2.30
2022-11-08T16:03:23.156Z,2.30
2022-11-08T16:06:11.853Z,2.30
2022-11-08T16:08:57.876Z,2.35
2022-11-08T16:11:45.778Z,2.47
2022-11-08T16:14:32.623Z,1.90
2022-11-08T16:17:20.142Z,2.55
2022-11-08T16:20:26.683Z,3.03
2022-11-08T16:23:14.656Z,3.00
2022-11-08T16:26:03.097Z,2.95
2022-11-08T16:28:49.684Z,3.00
2022-11-08T16:31:35.889Z,2.70
2022-11-08T16:34:24.099Z,2.65
2022-11-08T16:37:11.756Z,2.80
2022-11-08T16:39:58.355Z,2.42
2022-11-08T16:42:44.955Z,2.90
2022-11-08T16:46:03.233Z,2.63
2022-11-08T16:48:45.905Z,2.77
2022-11-08T16:51:33.594Z,2.92
2022-11-08T16:54:23.851Z,2.83
2022-11-08T17:00:19.019Z,3.27
2022-11-08T17:03:05.659Z,3.10
2022-11-08T17:05:54.194Z,3.00
2022-11-08T17:08:42.041Z,2.80
2022-11-08T17:11:28.290Z,2.80
2022-11-08T17:14:15.020Z,3.10
2022-11-08T17:17:01.400Z,3.40
2022-11-08T17:19:47.888Z,3.17
2022-11-08T17:22:34.608Z,2.93
2022-11-08T17:25:25.270Z,3.05
2022-11-08T17:28:12.359Z,2.87
2022-11-08T17:31:08.426Z,3.15
2022-11-08T17:33:55.120Z,3.42
2022-11-08T17:36:41.509Z,3.20
2022-11-08T17:39:27.939Z,3.13
2022-11-08T17:42:17.064Z,3.67
2022-11-08T17:45:03.380Z,3.17
2022-11-08T17:47:49.665Z,3.50
2022-11-08T17:50:36.439Z,3.15
2022-11-08T17:53:22.764Z,3.25
2022-11-08T17:56:11.396Z,3.60
2022-11-08T17:58:59.100Z,3.23
2022-11-08T18:01:45.344Z,3.60
2022-11-08T18:04:31.801Z,3.20
2022-11-08T18:07:18.193Z,3.08
2022-11-08T18:10:06.788Z,3.05
2022-11-08T18:12:53.528Z,2.80
2022-11-08T18:15:41.344Z,3.28
2022-11-08T18:18:27.866Z,3.20
2022-11-08T18:21:15.083Z,3.17
2022-11-08T18:24:01.653Z,6.63
2022-11-08T18:26:48.107Z,3.33
2022-11-08T18:29:34.472Z,3.83
2022-11-08T18:32:22.295Z,3.50
2022-11-08T18:35:10.101Z,2.97
2022-11-08T18:37:56.737Z,3.40
2022-11-08T18:40:45.792Z,3.13
2022-11-08T18:43:32.498Z,3.20
2022-11-08T18:46:21.464Z,3.30
2022-11-08T18:49:09.341Z,3.42
2022-11-08T18:51:56.702Z,3.28
2022-11-08T18:54:43.360Z,3.30
2022-11-08T18:57:29.633Z,3.38
2022-11-08T19:00:17.789Z,3.40
2022-11-08T19:03:04.412Z,3.10
2022-11-08T19:05:52.503Z,6.73
2022-11-08T19:08:38.791Z,6.05
2022-11-08T19:11:25.196Z,5.50
2022-11-08T19:14:11.483Z,4.03
2022-11-08T19:16:58.080Z,4.53
2022-11-08T19:19:45.045Z,3.80
2022-11-08T19:22:32.853Z,4.20
2022-11-08T19:25:19.559Z,4.82
2022-11-08T19:28:06.654Z,4.40
2022-11-08T19:30:54.455Z,4.82
2022-11-08T19:33:40.961Z,3.73
2022-11-08T19:36:29.268Z,4.22
2022-11-08T19:39:17.123Z,4.03
2022-11-08T19:42:03.492Z,3.72
2022-11-08T19:44:50.090Z,3.47
2022-11-08T19:47:36.295Z,3.50
2022-11-08T19:50:22.890Z,3.92
2022-11-08T19:53:09.597Z,3.93
2022-11-08T19:56:01.221Z,3.87
2022-11-08T19:58:48.032Z,3.40
2022-11-08T20:01:36.308Z,3.73
2022-11-08T20:04:22.882Z,3.83
2022-11-08T20:07:09.596Z,3.50
2022-11-08T20:09:55.888Z,3.22
2022-11-08T20:12:43.588Z,3.10
2022-11-08T20:15:30.446Z,3.05
2022-11-08T20:18:17.695Z,3.47
2022-11-08T20:21:05.549Z,4.18
2022-11-08T20:23:51.851Z,3.70
2022-11-08T20:26:39.229Z,4.28
2022-11-08T20:29:27.573Z,3.78
2022-11-08T20:32:14.252Z,4.03
2022-11-08T20:35:00.867Z,4.07
2022-11-08T20:37:47.463Z,3.63
2022-11-08T20:40:33.621Z,4.07
2022-11-08T20:43:21.744Z,3.38
2022-11-08T20:46:11.324Z,3.90
2022-11-08T20:49:01.426Z,3.90
2022-11-08T20:51:48.356Z,3.15
2022-11-08T20:54:36.212Z,3.65
2022-11-08T20:57:24.521Z,3.55
2022-11-08T21:00:13.825Z,3.50
2022-11-08T21:03:02.004Z,3.30
2022-11-08T21:05:51.992Z,3.08
2022-11-08T21:11:45.509Z,3.83
2022-11-08T21:14:31.877Z,3.60
2022-11-08T21:17:22.440Z,3.45
2022-11-08T21:20:12.697Z,3.08
2022-11-08T21:22:59.216Z,3.27
2022-11-08T21:25:46.140Z,3.17
2022-11-08T21:28:33.030Z,4.13
2022-11-08T21:31:19.330Z,3.50
2022-11-08T21:34:05.657Z,3.20
2022-11-08T21:36:53.532Z,2.97
2022-11-08T21:39:40.467Z,2.97
2022-11-08T21:42:27.002Z,2.63
2022-11-08T21:45:13.282Z,3.10
2022-11-08T21:47:59.625Z,2.97
2022-11-08T21:50:45.899Z,3.30
2022-11-08T21:53:33.723Z,3.37
2022-11-08T21:56:20.097Z,2.77
2022-11-08T21:59:06.419Z,2.97
2022-11-08T22:01:52.816Z,3.55
2022-11-08T22:04:39.186Z,3.13
2022-11-08T22:07:25.728Z,4.07
2022-11-08T22:10:13.999Z,3.53
2022-11-08T22:13:00.491Z,3.20
2022-11-08T22:15:47.288Z,3.37
2022-11-08T22:18:58.773Z,3.10
2022-11-08T22:21:41.233Z,2.87
2022-11-08T22:24:27.523Z,3.23
2022-11-08T22:27:15.304Z,3.20
2022-11-08T22:30:01.956Z,3.40
2022-11-08T22:32:48.502Z,3.80
2022-11-08T22:35:34.894Z,3.20
2022-11-08T22:38:21.553Z,3.63
2022-11-08T22:41:08.643Z,2.90
2022-11-08T22:43:56.807Z,3.10
2022-11-08T22:46:44.524Z,2.90
2022-11-08T22:49:30.827Z,3.10
2022-11-08T22:52:17.150Z,3.07
2022-11-08T22:55:03.539Z,3.23
2022-11-08T22:57:49.875Z,2.72
2022-11-08T23:00:37.766Z,2.40
2022-11-08T23:03:24.552Z,2.63
2022-11-08T23:06:11.545Z,2.97
2022-11-08T23:08:58.019Z,3.40
2022-11-08T23:12:01.672Z,3.27
2022-11-08T23:15:05.604Z,3.70
2022-11-08T23:17:53.566Z,3.23
2022-11-08T23:21:11.700Z,3.03
2022-11-08T23:24:15.828Z,2.90
2022-11-08T23:27:20.919Z,3.20
2022-11-08T23:30:26.875Z,3.33
2022-11-08T23:33:14.845Z,3.20
2022-11-08T23:36:14.644Z,3.90
2022-11-08T23:39:01.103Z,3.87
2022-11-08T23:42:04.765Z,3.27
2022-11-08T23:44:51.225Z,2.90
2022-11-08T23:47:37.587Z,3.10
2022-11-08T23:50:25.088Z,3.10
2022-11-08T23:53:11.287Z,2.63
2022-11-08T23:55:57.870Z,2.87
2022-11-08T23:58:44.223Z,3.50
